Time;durP1;ratioP1;P1;durP2;ratioP2;P2;SDS_P1;SDS_P2;PMS_P1;PMS_P2;Temp;Humidity;BMP_temperature;BMP_pressure;BME280_temperature;BME280_humidity;BME280_pressure;Samples;Min_cycle;Max_cycle;Signal;HPM_P1;HPM_P2
2022/12/08 00:00:52;;;;;;;;;;;;;;;7.71;60.64;101047.94;4953796;28;124058;-68
2022/12/08 00:03:18;;;;;;;;;;;;;;;7.69;60.51;101052.41;4960063;28;126722;-68
2022/12/08 00:11:19;;;;;;;;;;;;;;;7.65;60.66;101042.84;4953116;28;124040;-67
2022/12/08 00:13:46;;;;;;;;;;;;;;;7.65;60.30;101037.56;4960115;28;124391;-68
2022/12/08 00:16:13;;;;;;;;;;;;;;;7.64;60.79;101030.59;4957204;28;120014;-68
2022/12/08 00:18:40;;;;;;;;;;;;;;;7.65;60.58;101035.81;4941169;28;119079;-67
2022/12/08 00:21:07;;;;;;;;;;;;;;;7.65;60.49;101025.28;4957251;28;124128;-67
2022/12/08 00:23:34;;;;;;;;;;;;;;;7.65;60.95;101029.66;4956535;28;124076;-68
2022/12/08 00:26:02;;;;;;;;;;;;;;;7.67;60.59;101017.31;4960137;28;120346;-68
2022/12/08 00:28:30;;;;;;;;;;;;;;;7.67;61.03;101022.59;4957296;28;119158;-68
2022/12/08 00:30:57;;;;;;;;;;;;;;;7.67;60.94;101012.06;4944484;28;124437;-67
2022/12/08 00:33:24;;;;;;;;;;;;;;;7.68;60.83;101013.75;4959099;28;124162;-68
2022/12/08 00:35:51;;;;;;;;;;;;;;;7.69;60.57;101010.22;4953548;28;119458;-67
2022/12/08 00:38:17;;;;;;;;;;;;;;;7.69;60.98;101010.22;4959051;28;119241;-68
2022/12/08 00:40:45;;;;;;;;;;;;;;;7.69;60.93;101004.97;4954204;28;124437;-68
2022/12/08 00:43:12;;;;;;;;;;;;;;;7.69;60.78;100999.69;4956170;28;124914;-68
2022/12/08 00:45:39;;;;;;;;;;;;;;;7.70;60.78;101004.03;4961263;28;119358;-68
2022/12/08 00:48:06;;;;;;;;;;;;;;;7.71;60.85;100997.88;4945035;28;119719;-68
2022/12/08 00:50:32;;;;;;;;;;;;;;;7.70;60.96;100993.47;4923752;28;125419;-68
2022/12/08 00:52:59;;;;;;;;;;;;;;;7.71;60.79;100992.59;4956726;28;126219;-67
2022/12/08 00:55:26;;;;;;;;;;;;;;;7.71;60.57;100987.31;4956163;28;120234;-68
2022/12/08 00:57:53;;;;;;;;;;;;;;;7.71;60.90;100982.91;4950527;28;121007;-68
2022/12/08 01:00:20;;;;;;;;;;;;;;;7.72;60.79;100983.75;4955154;28;124619;-68
2022/12/08 01:02:47;;;;;;;;;;;;;;;7.72;60.83;100983.75;4942569;28;124028;-68
2022/12/08 01:05:14;;;;;;;;;;;;;;;7.72;61.04;100989.03;4949058;28;120087;-68
2022/12/08 01:07:41;;;;;;;;;;;;;;;7.73;61.09;100990.75;4959345;28;119473;-68
2022/12/08 01:10:08;;;;;;;;;;;;;;;7.74;61.08;100987.19;4948195;28;124210;-68
2022/12/08 01:12:35;;;;;;;;;;;;;;;7.74;61.05;100982.81;4962498;28;124568;-67
2022/12/08 01:15:02;;;;;;;;;;;;;;;7.77;60.57;100987.97;4962864;28;120731;-68
2022/12/08 01:17:29;;;;;;;;;;;;;;;7.78;60.89;100980.94;4945756;28;118532;-68
2022/12/08 01:19:57;;;;;;;;;;;;;;;7.80;61.00;100981.75;4944361;28;125359;-68
2022/12/08 01:22:24;;;;;;;;;;;;;;;7.81;60.89;100983.47;4962551;28;123677;-68
2022/12/08 01:24:51;;;;;;;;;;;;;;;7.83;60.79;100986.91;4947587;28;119305;-68
2022/12/08 01:27:17;;;;;;;;;;;;;;;7.85;60.79;100984.25;4959935;28;119090;-68
2022/12/08 01:29:44;;;;;;;;;;;;;;;7.86;60.88;100984.19;4957698;28;124270;-68
2022/12/08 01:32:11;;;;;;;;;;;;;;;7.85;60.84;100974.53;4959394;28;123848;-68
2022/12/08 01:34:38;;;;;;;;;;;;;;;7.87;60.57;100978.00;4959876;28;119824;-68
2022/12/08 01:37:05;;;;;;;;;;;;;;;7.88;60.95;100970.97;4956895;28;117954;-68
2022/12/08 01:39:32;;;;;;;;;;;;;;;7.89;60.75;100980.59;4957745;28;124374;-67
2022/12/08 01:41:58;;;;;;;;;;;;;;;7.89;60.88;100976.19;4962355;28;124648;-68
2022/12/08 01:44:25;;;;;;;;;;;;;;;7.90;60.86;100972.63;4953257;28;118338;-68
2022/12/08 01:46:53;;;;;;;;;;;;;;;7.91;60.87;100969.09;4959818;28;119188;-66
2022/12/08 01:49:21;;;;;;;;;;;;;;;7.92;60.99;100975.22;4958139;28;125276;-68
2022/12/08 01:51:54;;;;;;;;;;;;;;;7.91;60.67;100963.81;4944326;28;123630;-68
2022/12/08 01:54:23;;;;;;;;;;;;;;;7.89;60.80;100965.66;4957199;28;119922;-68
2022/12/08 01:56:57;;;;;;;;;;;;;;;7.89;60.95;100960.38;4958276;28;118939;-68
2022/12/08 01:59:25;;;;;;;;;;;;;;;7.89;60.70;100960.38;4956308;28;124539;-68
2022/12/08 02:01:52;;;;;;;;;;;;;;;7.90;60.74;100951.53;4959220;28;124828;-68
2022/12/08 02:04:19;;;;;;;;;;;;;;;7.90;60.93;100951.53;4945253;28;122546;-67
2022/12/08 02:06:48;;;;;;;;;;;;;;;7.89;61.00;100952.47;4958898;28;119469;-68
2022/12/08 02:09:15;;;;;;;;;;;;;;;7.89;60.75;100949.81;4962787;28;124370;-68
2022/12/08 02:11:42;;;;;;;;;;;;;;;7.90;60.99;100946.25;4962826;28;124067;-68
2022/12/08 02:14:10;;;;;;;;;;;;;;;7.89;60.89;100934.00;4960324;28;119642;-68
2022/12/08 02:16:55;;;;;;;;;;;;;;;7.88;60.67;100929.63;4959539;28;118653;-68
2022/12/08 02:19:34;;;;;;;;;;;;;;;7.88;60.95;100929.63;4938157;28;124560;-68
2022/12/08 02:22:07;;;;;;;;;;;;;;;7.88;60.78;100926.13;4937667;28;125027;-68
2022/12/08 02:24:54;;;;;;;;;;;;;;;7.87;60.73;100925.25;4961025;28;119591;-67
2022/12/08 02:27:24;;;;;;;;;;;;;;;7.85;60.68;100921.81;4953230;28;118705;-68
2022/12/08 02:29:59;;;;;;;;;;;;;;;7.86;60.83;100912.16;4958929;28;124379;-67
2022/12/08 02:32:40;;;;;;;;;;;;;;;7.85;60.92;100916.53;4946971;28;123017;-67
2022/12/08 02:35:11;;;;;;;;;;;;;;;7.85;60.79;100915.69;4960002;28;119916;-67
2022/12/08 02:37:41;;;;;;;;;;;;;;;7.85;61.04;100911.25;4960569;28;118555;-68
2022/12/08 02:40:23;;;;;;;;;;;;;;;7.85;60.97;100900.72;4963737;28;124157;-68
2022/12/08 02:42:55;;;;;;;;;;;;;;;7.87;60.85;100908.56;4961607;28;124517;-67
2022/12/08 02:45:30;;;;;;;;;;;;;;;7.86;60.74;100897.19;4957376;28;119508;-68
2022/12/08 02:47:57;;;;;;;;;;;;;;;7.86;60.66;100891.91;4950350;28;119187;-68
2022/12/08 02:50:24;;;;;;;;;;;;;;;7.85;61.04;100884.03;4956730;28;124068;-68
2022/12/08 02:52:51;;;;;;;;;;;;;;;7.87;60.67;100890.13;4959645;28;123747;-68
2022/12/08 02:55:18;;;;;;;;;;;;;;;7.86;60.92;100878.72;4919967;28;120467;-68
2022/12/08 02:57:52;;;;;;;;;;;;;;;7.86;60.69;100876.09;4958578;28;120436;-68
2022/12/08 03:00:20;;;;;;;;;;;;;;;7.87;60.90;100871.66;4963434;28;124602;-68
2022/12/08 03:02:50;;;;;;;;;;;;;;;7.87;60.96;100872.50;4949203;28;124464;-67
2022/12/08 03:05:36;;;;;;;;;;;;;;;7.86;60.86;100873.44;4949948;28;119743;-67
2022/12/08 03:08:10;;;;;;;;;;;;;;;7.84;60.67;100870.00;4959427;28;118628;-67
2022/12/08 03:11:00;;;;;;;;;;;;;;;7.84;60.95;100867.38;4956729;28;124102;-68
2022/12/08 03:13:33;;;;;;;;;;;;;;;7.84;60.79;100867.38;4962816;28;123913;-68
2022/12/08 03:16:01;;;;;;;;;;;;;;;7.83;60.83;100870.91;4947695;28;118597;-68
2022/12/08 03:18:30;;;;;;;;;;;;;;;7.85;60.82;100873.50;4964327;28;118645;-68
2022/12/08 03:20:58;;;;;;;;;;;;;;;7.85;61.01;100868.22;4948984;28;124324;-67
2022/12/08 03:23:25;;;;;;;;;;;;;;;7.84;61.08;100867.38;4949066;28;123072;-68
2022/12/08 03:26:10;;;;;;;;;;;;;;;7.83;60.91;100868.25;4957723;28;119730;-68
2022/12/08 03:28:38;;;;;;;;;;;;;;;7.83;60.67;100873.53;4948106;28;117555;-68
2022/12/08 03:31:08;;;;;;;;;;;;;;;7.83;60.76;100865.63;4956683;28;124618;-68
2022/12/08 03:33:37;;;;;;;;;;;;;;;7.85;60.68;100858.53;4958054;28;123983;-68
2022/12/08 03:36:06;;;;;;;;;;;;;;;7.85;61.08;100853.25;4954899;28;120251;-68
2022/12/08 03:38:37;;;;;;;;;;;;;;;7.86;60.77;100860.25;4937133;28;117899;-68
2022/12/08 03:41:19;;;;;;;;;;;;;;;7.87;61.00;100859.34;4947836;28;123110;-68
2022/12/08 03:43:47;;;;;;;;;;;;;;;7.86;61.06;100854.13;4947156;28;124729;-68
2022/12/08 03:46:15;;;;;;;;;;;;;;;7.86;61.07;100849.72;4963584;28;120616;-67
2022/12/08 03:48:42;;;;;;;;;;;;;;;7.88;60.80;100847.88;4960308;28;119645;-68
2022/12/08 03:51:09;;;;;;;;;;;;;;;7.89;60.88;100838.19;4959389;28;124585;-68
2022/12/08 03:53:36;;;;;;;;;;;;;;;7.89;61.10;100836.44;4963921;28;124218;-68
2022/12/08 03:56:18;;;;;;;;;;;;;;;7.89;60.95;100833.81;4960583;28;120328;-68
2022/12/08 03:58:45;;;;;;;;;;;;;;;7.88;60.74;100832.06;4946762;28;118320;-68
2022/12/08 04:01:12;;;;;;;;;;;;;;;7.89;60.88;100823.25;4941853;28;123145;-68
2022/12/08 04:03:38;;;;;;;;;;;;;;;7.90;60.81;100824.97;4964695;28;123805;-68
2022/12/08 04:06:06;;;;;;;;;;;;;;;7.90;61.00;100819.69;4957824;28;119532;-68
2022/12/08 04:08:33;;;;;;;;;;;;;;;7.89;60.96;100817.97;4944308;28;118375;-68
2022/12/08 04:11:00;;;;;;;;;;;;;;;7.89;60.98;100823.25;4967728;28;124167;-68
2022/12/08 04:13:27;;;;;;;;;;;;;;;7.92;61.03;100817.84;4962219;28;123279;-68
2022/12/08 04:15:53;;;;;;;;;;;;;;;7.92;60.85;100817.84;4959090;28;119472;-68
2022/12/08 04:18:21;;;;;;;;;;;;;;;7.93;60.79;100814.31;4959829;28;118618;-68
2022/12/08 04:20:48;;;;;;;;;;;;;;;7.94;61.17;100820.44;4960579;28;124709;-68
2022/12/08 04:23:15;;;;;;;;;;;;;;;7.93;61.03;100814.31;4963694;28;124426;-68
2022/12/08 04:25:42;;;;;;;;;;;;;;;7.94;60.84;100821.28;4960185;28;119119;-68
2022/12/08 04:28:09;;;;;;;;;;;;;;;7.95;60.80;100812.50;4954744;28;118454;-68
2022/12/08 04:30:36;;;;;;;;;;;;;;;7.96;61.23;100811.56;4958969;28;124142;-69
2022/12/08 04:33:03;;;;;;;;;;;;;;;7.97;61.20;100808.00;4944297;28;124132;-68
2022/12/08 04:35:30;;;;;;;;;;;;;;;7.98;60.87;100812.34;4946319;28;121398;-68
2022/12/08 04:37:57;;;;;;;;;;;;;;;8.00;60.98;100807.03;4943727;28;119774;-68
2022/12/08 04:40:24;;;;;;;;;;;;;;;8.01;60.74;100805.28;4967011;28;124065;-69
2022/12/08 04:42:51;;;;;;;;;;;;;;;8.01;60.78;100805.28;4966063;28;123649;-69
2022/12/08 04:45:17;;;;;;;;;;;;;;;8.01;61.02;100815.84;4941058;28;119379;-70
2022/12/08 04:47:45;;;;;;;;;;;;;;;8.02;60.86;100809.63;4958528;28;118347;-69
2022/12/08 04:50:12;;;;;;;;;;;;;;;8.03;60.93;100798.19;4940867;28;126703;-69
2022/12/08 04:52:39;;;;;;;;;;;;;;;8.04;61.17;100805.16;4963785;28;123783;-69
2022/12/08 04:55:06;;;;;;;;;;;;;;;8.06;60.76;100793.66;4945259;28;118773;-69
2022/12/08 04:57:33;;;;;;;;;;;;;;;8.08;60.93;100801.50;4957085;28;119080;-69
2022/12/08 04:59:59;;;;;;;;;;;;;;;8.09;60.96;100804.09;4965979;28;124151;-69
2022/12/08 05:02:26;;;;;;;;;;;;;;;8.10;61.01;100789.09;4945650;28;123302;-69
2022/12/08 05:04:53;;;;;;;;;;;;;;;8.10;61.06;100797.91;4960925;28;118912;-69
2022/12/08 05:07:20;;;;;;;;;;;;;;;8.09;61.10;100798.81;4955992;28;118547;-69
2022/12/08 05:09:47;;;;;;;;;;;;;;;8.11;60.92;100811.94;4961293;28;124596;-69
2022/12/08 05:12:14;;;;;;;;;;;;;;;8.10;60.84;100804.94;4943056;28;123660;-69
2022/12/08 05:14:41;;;;;;;;;;;;;;;8.09;60.77;100795.31;4961439;28;119443;-70
2022/12/08 05:17:08;;;;;;;;;;;;;;;8.07;60.88;100799.78;4959706;28;118535;-69
2022/12/08 05:19:35;;;;;;;;;;;;;;;8.08;60.90;100785.66;4967354;28;124863;-69
2022/12/08 05:22:02;;;;;;;;;;;;;;;8.08;61.23;100786.56;4962320;28;124284;-69
2022/12/08 05:24:29;;;;;;;;;;;;;;;8.11;60.88;100780.28;4945732;28;121621;-70
2022/12/08 05:26:56;;;;;;;;;;;;;;;8.12;61.17;100787.31;4963184;28;120307;-70
2022/12/08 05:29:23;;;;;;;;;;;;;;;8.13;60.86;100786.38;4956256;28;125013;-69
2022/12/08 05:31:50;;;;;;;;;;;;;;;8.13;60.74;100778.47;4961570;28;124120;-69
2022/12/08 05:34:17;;;;;;;;;;;;;;;8.14;61.18;100780.19;4962066;28;119670;-69
2022/12/08 05:36:44;;;;;;;;;;;;;;;8.14;60.88;100774.91;4958163;28;118740;-69
2022/12/08 05:39:11;;;;;;;;;;;;;;;8.13;60.90;100774.03;4945530;28;126556;-70
2022/12/08 05:41:38;;;;;;;;;;;;;;;8.15;61.04;100771.34;4936738;28;125118;-69
2022/12/08 05:44:05;;;;;;;;;;;;;;;8.17;60.98;100770.41;4952874;28;119641;-69
2022/12/08 05:46:32;;;;;;;;;;;;;;;8.17;60.59;100786.22;4960728;28;119164;-69
2022/12/08 05:49:00;;;;;;;;;;;;;;;8.17;60.90;100780.06;4953694;28;124488;-70
2022/12/08 05:51:27;;;;;;;;;;;;;;;8.16;60.99;100778.34;4957488;28;124274;-70
2022/12/08 05:53:55;;;;;;;;;;;;;;;8.16;61.00;100773.09;4956510;28;120562;-70
2022/12/08 05:56:22;;;;;;;;;;;;;;;8.16;60.77;100767.81;4960141;28;118704;-69
2022/12/08 05:58:49;;;;;;;;;;;;;;;8.17;61.00;100764.22;4942283;28;124047;-70
2022/12/08 06:01:27;;;;;;;;;;;;;;;8.16;61.16;100767.81;4940144;28;124760;-69
2022/12/08 06:03:55;;;;;;;;;;;;;;;8.16;61.10;100762.53;4954969;28;119372;-69
2022/12/08 06:06:22;;;;;;;;;;;;;;;8.17;60.78;100769.50;4957466;28;119184;-69
2022/12/08 06:08:49;;;;;;;;;;;;;;;8.16;60.87;100758.09;4955754;28;124881;-70
2022/12/08 06:11:18;;;;;;;;;;;;;;;8.13;61.04;100762.63;4945397;28;123267;-69
2022/12/08 06:13:45;;;;;;;;;;;;;;;8.09;60.82;100761.03;4965376;28;120317;-69
2022/12/08 06:16:11;;;;;;;;;;;;;;;8.08;60.77;100769.84;4963517;28;119494;-70
2022/12/08 06:18:38;;;;;;;;;;;;;;;8.04;60.72;100769.09;4962646;28;124100;-69
2022/12/08 06:21:06;;;;;;;;;;;;;;;8.02;60.80;100765.66;4964042;28;124885;-69
2022/12/08 06:23:33;;;;;;;;;;;;;;;8.02;60.76;100765.66;4940625;28;118277;-69
2022/12/08 06:26:04;;;;;;;;;;;;;;;8.01;60.71;100768.38;4957394;28;118931;-70
2022/12/08 06:28:32;;;;;;;;;;;;;;;7.97;61.05;100762.34;4958957;28;125032;-69
2022/12/08 06:30:58;;;;;;;;;;;;;;;7.94;60.60;100765.91;4959726;28;124210;-69
2022/12/08 06:33:25;;;;;;;;;;;;;;;7.91;61.01;100766.03;4962033;28;119517;-69
2022/12/08 06:35:52;;;;;;;;;;;;;;;7.88;60.99;100758.22;4969211;28;119645;-69
2022/12/08 06:38:19;;;;;;;;;;;;;;;7.88;61.07;100758.22;4948029;28;124268;-69
2022/12/08 06:40:51;;;;;;;;;;;;;;;7.88;60.83;100763.50;4965192;28;124170;-69
2022/12/08 06:43:18;;;;;;;;;;;;;;;7.87;60.86;100750.38;4944564;28;119371;-69
2022/12/08 06:45:45;;;;;;;;;;;;;;;7.86;61.14;100760.06;4947845;28;119723;-69
2022/12/08 06:48:12;;;;;;;;;;;;;;;7.83;60.87;100749.63;4944891;28;124433;-69
2022/12/08 06:50:39;;;;;;;;;;;;;;;7.83;60.95;100754.88;4958850;28;123308;-69
2022/12/08 06:53:06;;;;;;;;;;;;;;;7.82;60.69;100757.56;4948217;28;119677;-69
2022/12/08 06:55:33;;;;;;;;;;;;;;;7.79;60.92;100755.91;4945520;28;117659;-69
2022/12/08 06:58:20;;;;;;;;;;;;;;;7.77;61.10;100753.31;4951920;28;124474;-69
2022/12/08 07:00:47;;;;;;;;;;;;;;;7.76;61.12;100753.38;4964670;28;124790;-70
2022/12/08 07:03:14;;;;;;;;;;;;;;;7.74;61.06;100749.94;4964693;28;120753;-70
2022/12/08 07:05:41;;;;;;;;;;;;;;;7.74;61.03;100749.94;4960568;28;120230;-70
2022/12/08 07:08:08;;;;;;;;;;;;;;;7.74;60.73;100757.84;4953943;28;124736;-69
2022/12/08 07:10:35;;;;;;;;;;;;;;;7.72;60.78;100757.03;4963966;28;124892;-70
2022/12/08 07:13:02;;;;;;;;;;;;;;;7.71;60.81;100755.34;4965396;28;118445;-70
2022/12/08 07:15:29;;;;;;;;;;;;;;;7.70;61.14;100753.59;4941331;28;119915;-70
2022/12/08 07:17:56;;;;;;;;;;;;;;;7.70;61.07;100761.50;4961435;28;124965;-69
2022/12/08 07:20:26;;;;;;;;;;;;;;;7.70;60.86;100758.88;4948990;28;125624;-69
2022/12/08 07:22:53;;;;;;;;;;;;;;;7.71;60.92;100763.25;4953183;28;119640;-69
2022/12/08 07:25:20;;;;;;;;;;;;;;;7.69;60.81;100758.03;4949524;28;118087;-69
2022/12/08 07:27:48;;;;;;;;;;;;;;;7.68;61.31;100758.06;4955883;28;125114;-70
2022/12/08 07:30:15;;;;;;;;;;;;;;;7.68;60.74;100761.56;4958613;28;124304;-69
2022/12/08 07:32:42;;;;;;;;;;;;;;;7.70;61.15;100764.13;4958849;28;118695;-70
2022/12/08 07:35:09;;;;;;;;;;;;;;;7.69;61.01;100767.72;4959415;28;118989;-69
2022/12/08 07:37:36;;;;;;;;;;;;;;;7.69;61.01;100757.16;4939377;28;124119;-70
2022/12/08 07:40:04;;;;;;;;;;;;;;;7.70;61.31;100758.88;4954897;28;124558;-69
2022/12/08 07:42:31;;;;;;;;;;;;;;;7.70;61.16;100758.88;4955879;28;120614;-69
2022/12/08 07:44:58;;;;;;;;;;;;;;;7.70;60.88;100761.50;4938042;28;118692;-69
2022/12/08 07:47:25;;;;;;;;;;;;;;;7.69;61.18;100757.16;4956769;28;125086;-69
2022/12/08 07:49:52;;;;;;;;;;;;;;;7.71;61.21;100755.34;4955955;28;124561;-70
2022/12/08 07:52:19;;;;;;;;;;;;;;;7.71;61.30;100750.91;4951442;28;121127;-69
2022/12/08 07:54:46;;;;;;;;;;;;;;;7.74;61.26;100755.22;4961559;28;119788;-69
2022/12/08 07:57:13;;;;;;;;;;;;;;;7.74;61.26;100756.09;4957589;28;124034;-70
2022/12/08 07:59:40;;;;;;;;;;;;;;;7.75;61.35;100757.78;4955116;28;125185;-70
2022/12/08 08:02:14;;;;;;;;;;;;;;;7.77;61.08;100755.09;4962814;28;118486;-70
2022/12/08 08:04:51;;;;;;;;;;;;;;;7.78;61.34;100759.47;4961301;28;119086;-70
2022/12/08 08:07:18;;;;;;;;;;;;;;;7.79;61.32;100763.81;4955337;28;124367;-70
2022/12/08 08:09:45;;;;;;;;;;;;;;;7.79;61.23;100758.56;4959466;28;124244;-70
2022/12/08 08:12:12;;;;;;;;;;;;;;;7.80;60.96;100765.56;4957882;28;119917;-70
2022/12/08 08:14:59;;;;;;;;;;;;;;;7.81;61.12;100767.25;4942987;28;118699;-70
2022/12/08 08:17:27;;;;;;;;;;;;;;;7.84;61.04;100764.53;4965403;28;125069;-70
2022/12/08 08:19:54;;;;;;;;;;;;;;;7.86;61.08;100765.34;4939021;28;125720;-70
2022/12/08 08:22:23;;;;;;;;;;;;;;;7.86;61.29;100767.13;4933595;28;119618;-70
2022/12/08 08:24:50;;;;;;;;;;;;;;;7.86;61.06;100760.06;4936015;28;118764;-69
2022/12/08 08:27:17;;;;;;;;;;;;;;;7.88;61.16;100767.94;4950874;28;123974;-70
2022/12/08 08:29:43;;;;;;;;;;;;;;;7.89;61.12;100770.53;4951369;28;125932;-70
2022/12/08 08:32:10;;;;;;;;;;;;;;;7.90;61.21;100761.69;4950440;28;118368;-70
2022/12/08 08:34:37;;;;;;;;;;;;;;;7.89;60.98;100765.25;4950531;28;118776;-70
2022/12/08 08:37:04;;;;;;;;;;;;;;;7.89;61.12;100762.59;4936837;28;124311;-70
2022/12/08 08:39:32;;;;;;;;;;;;;;;7.90;61.09;100766.94;4951916;28;123455;-70
2022/12/08 08:41:59;;;;;;;;;;;;;;;7.91;61.16;100760.78;4953446;28;120337;-70
2022/12/08 08:44:26;;;;;;;;;;;;;;;7.93;61.19;100766.84;4945132;28;118662;-70
2022/12/08 08:46:53;;;;;;;;;;;;;;;7.94;61.16;100768.56;4954728;28;124350;-70
2022/12/08 08:49:20;;;;;;;;;;;;;;;7.95;61.29;100765.03;4946707;28;124163;-70
2022/12/08 08:51:47;;;;;;;;;;;;;;;7.97;60.92;100768.47;4962262;28;120139;-70
2022/12/08 08:54:14;;;;;;;;;;;;;;;7.97;61.26;100768.47;4956243;28;118651;-70
2022/12/08 08:56:41;;;;;;;;;;;;;;;7.99;61.07;100771.03;4951657;28;124345;-70
2022/12/08 08:59:08;;;;;;;;;;;;;;;8.01;61.02;100778.91;4968370;28;124076;-70
2022/12/08 09:01:35;;;;;;;;;;;;;;;7.99;60.82;100779.81;4967592;28;120500;-70
2022/12/08 09:04:05;;;;;;;;;;;;;;;7.96;61.10;100782.53;4945574;28;118667;-70
2022/12/08 09:06:47;;;;;;;;;;;;;;;7.90;61.05;100772.22;4958731;28;124413;-70
2022/12/08 09:09:15;;;;;;;;;;;;;;;7.87;61.07;100782.88;4959740;28;123828;-70
2022/12/08 09:11:42;;;;;;;;;;;;;;;7.86;60.94;100781.16;4954435;28;119869;-70
2022/12/08 09:14:14;;;;;;;;;;;;;;;7.83;61.15;100781.25;4963032;28;119625;-70
2022/12/08 09:16:41;;;;;;;;;;;;;;;7.81;61.02;100783.09;4960346;28;124681;-70
2022/12/08 09:19:08;;;;;;;;;;;;;;;7.80;61.11;100784.88;4961095;28;124274;-70
2022/12/08 09:21:35;;;;;;;;;;;;;;;7.81;60.90;100777.81;4965025;28;119869;-70
2022/12/08 09:24:02;;;;;;;;;;;;;;;7.81;60.99;100788.34;4954744;28;119199;-70
2022/12/08 09:26:29;;;;;;;;;;;;;;;7.81;61.33;100783.09;4959040;28;123759;-69
2022/12/08 09:28:57;;;;;;;;;;;;;;;7.82;60.84;100784.81;4953066;28;124464;-70
2022/12/08 09:31:24;;;;;;;;;;;;;;;7.81;61.02;100788.34;4947366;28;120517;-68
2022/12/08 09:33:51;;;;;;;;;;;;;;;7.80;60.94;100786.66;4959059;28;120194;-68
2022/12/08 09:36:18;;;;;;;;;;;;;;;7.79;61.29;100784.91;4951707;28;123397;-68
2022/12/08 09:38:45;;;;;;;;;;;;;;;7.79;60.84;100784.91;4951867;28;122239;-68
2022/12/08 09:41:19;;;;;;;;;;;;;;;7.78;60.80;100783.22;4966857;28;119716;-68
2022/12/08 09:44:04;;;;;;;;;;;;;;;7.78;60.85;100777.94;4967160;28;118707;-68
2022/12/08 09:46:33;;;;;;;;;;;;;;;7.79;60.92;100779.66;4961571;28;124517;-68
2022/12/08 09:49:01;;;;;;;;;;;;;;;7.79;60.99;100774.38;4970156;28;124556;-68
2022/12/08 09:51:33;;;;;;;;;;;;;;;7.78;60.90;100784.06;4967773;28;119616;-68
2022/12/08 09:54:03;;;;;;;;;;;;;;;7.80;61.11;100776.09;4939357;28;118796;-67
2022/12/08 09:56:32;;;;;;;;;;;;;;;7.81;61.15;100785.72;4980267;28;124490;-69
2022/12/08 09:59:21;;;;;;;;;;;;;;;7.82;61.13;100779.56;4973392;28;127244;-68
2022/12/08 10:01:49;;;;;;;;;;;;;;;7.83;61.26;100785.69;4965146;28;119139;-68
2022/12/08 10:04:16;;;;;;;;;;;;;;;7.85;61.11;100778.56;4981559;28;119073;-68
2022/12/08 10:06:48;;;;;;;;;;;;;;;7.86;61.18;100781.16;4974917;28;124130;-68
2022/12/08 10:09:33;;;;;;;;;;;;;;;7.86;61.24;100781.16;4977637;28;123962;-68
2022/12/08 10:12:19;;;;;;;;;;;;;;;7.87;61.30;100769.69;4945375;28;119124;-68
2022/12/08 10:14:52;;;;;;;;;;;;;;;7.87;60.97;100769.69;4964132;28;119678;-68
2022/12/08 10:17:26;;;;;;;;;;;;;;;7.89;61.13;100759.97;4961818;28;123292;-69
2022/12/08 10:19:56;;;;;;;;;;;;;;;7.88;61.26;100758.22;4959762;28;124126;-68
2022/12/08 10:22:25;;;;;;;;;;;;;;;7.90;61.03;100761.69;4960753;28;120268;-68
2022/12/08 10:24:56;;;;;;;;;;;;;;;7.92;61.01;100759.84;4951432;28;118685;-68
2022/12/08 10:27:23;;;;;;;;;;;;;;;7.95;61.04;100749.19;4935825;28;125030;-68
2022/12/08 10:29:50;;;;;;;;;;;;;;;7.99;61.02;100750.81;4958208;28;124547;-68
2022/12/08 10:32:19;;;;;;;;;;;;;;;8.03;61.24;100750.69;4936415;28;119736;-68
2022/12/08 10:34:58;;;;;;;;;;;;;;;8.05;61.37;100754.16;4942554;28;117841;-68
2022/12/08 10:37:25;;;;;;;;;;;;;;;8.05;61.28;100749.72;4952106;28;124239;-68
2022/12/08 10:40:00;;;;;;;;;;;;;;;8.07;61.03;100747.03;4934415;28;124014;-68
2022/12/08 10:42:32;;;;;;;;;;;;;;;8.08;61.20;100739.06;4948915;28;119770;-69
2022/12/08 10:45:10;;;;;;;;;;;;;;;8.11;61.16;100738.09;4965267;28;118512;-67
2022/12/08 10:47:39;;;;;;;;;;;;;;;8.13;61.07;100731.81;4959736;28;124354;-68
2022/12/08 10:50:19;;;;;;;;;;;;;;;8.15;61.07;100739.69;4965287;28;123965;-68
2022/12/08 10:52:57;;;;;;;;;;;;;;;8.16;61.28;100736.16;4967109;28;119652;-68
2022/12/08 10:55:24;;;;;;;;;;;;;;;8.15;61.24;100739.69;4955964;28;118977;-68
2022/12/08 10:57:51;;;;;;;;;;;;;;;8.18;61.23;100735.16;4950708;28;124072;-68
2022/12/08 11:00:20;;;;;;;;;;;;;;;8.21;61.09;100734.19;4967536;28;124010;-69
2022/12/08 11:02:53;;;;;;;;;;;;;;;8.24;61.33;100733.22;4961822;28;120922;-68
2022/12/08 11:05:20;;;;;;;;;;;;;;;8.25;61.27;100730.53;4947984;28;117935;-69
2022/12/08 11:07:51;;;;;;;;;;;;;;;8.25;60.87;100725.25;4960568;28;124665;-69
2022/12/08 11:10:20;;;;;;;;;;;;;;;8.27;61.36;100728.69;4965723;28;124167;-68
2022/12/08 11:12:48;;;;;;;;;;;;;;;8.27;61.32;100723.41;4948260;28;119390;-68
2022/12/08 11:15:16;;;;;;;;;;;;;;;8.27;61.31;100733.97;4967404;28;119583;-68
2022/12/08 11:17:46;;;;;;;;;;;;;;;8.28;61.19;100719.84;4964758;28;124254;-68
2022/12/08 11:20:21;;;;;;;;;;;;;;;8.30;61.10;100714.53;4963527;28;123452;-68
2022/12/08 11:22:52;;;;;;;;;;;;;;;8.32;60.99;100710.91;4962426;28;119602;-68
2022/12/08 11:25:21;;;;;;;;;;;;;;;8.35;61.09;100709.94;4937491;28;118506;-68
2022/12/08 11:27:50;;;;;;;;;;;;;;;8.35;61.30;100704.66;4945987;28;124151;-70
2022/12/08 11:30:25;;;;;;;;;;;;;;;8.36;60.90;100701.97;4962965;28;123410;-68
2022/12/08 11:32:53;;;;;;;;;;;;;;;8.38;61.36;100699.25;4956131;28;120131;-68
2022/12/08 11:35:20;;;;;;;;;;;;;;;8.39;61.03;100701.84;4953889;28;118918;-68
2022/12/08 11:37:47;;;;;;;;;;;;;;;8.43;61.11;100697.34;4957933;28;124777;-68
2022/12/08 11:40:27;;;;;;;;;;;;;;;8.45;61.28;100699.91;4957632;28;124251;-68
2022/12/08 11:43:12;;;;;;;;;;;;;;;8.47;61.29;100698.06;4947365;28;118215;-69
2022/12/08 11:45:40;;;;;;;;;;;;;;;8.47;61.13;100700.72;4967877;28;119298;-69
2022/12/08 11:48:15;;;;;;;;;;;;;;;8.47;61.25;100690.16;4967751;28;124827;-69
2022/12/08 11:50:51;;;;;;;;;;;;;;;8.47;61.01;100692.78;4963286;28;124619;-69
2022/12/08 11:53:25;;;;;;;;;;;;;;;8.49;61.27;100690.94;4963639;28;119419;-68
2022/12/08 11:55:56;;;;;;;;;;;;;;;8.50;61.18;100687.41;4963067;28;118550;-68
2022/12/08 11:58:26;;;;;;;;;;;;;;;8.51;60.89;100689.09;4966794;28;124374;-68
2022/12/08 12:00:53;;;;;;;;;;;;;;;8.50;61.16;100690.06;4949368;28;124016;-69
2022/12/08 12:03:23;;;;;;;;;;;;;;;8.49;61.06;100693.59;4968044;28;121184;-68
2022/12/08 12:05:56;;;;;;;;;;;;;;;8.49;60.90;100685.69;4961621;28;119677;-68
2022/12/08 12:09:02;;;;;;;;;;;;;;;8.48;60.83;100691.91;4952005;28;124829;-69
2022/12/08 12:14:21;;;;;;;;;;;;;;;8.49;60.98;100688.31;4981145;28;119964;-69
2022/12/08 12:16:58;;;;;;;;;;;;;;;8.49;61.38;100683.03;4962964;28;118688;-69
2022/12/08 12:19:29;;;;;;;;;;;;;;;8.49;61.04;100685.69;4965774;28;124401;-68
2022/12/08 12:22:07;;;;;;;;;;;;;;;8.49;61.22;100683.03;4962203;28;124976;-69
2022/12/08 12:24:36;;;;;;;;;;;;;;;8.50;61.03;100682.13;4967541;28;119830;-69
2022/12/08 12:27:19;;;;;;;;;;;;;;;8.51;60.92;100683.84;4954330;28;119164;-69
2022/12/08 12:29:49;;;;;;;;;;;;;;;8.50;60.78;100682.97;4954551;28;124408;-69
2022/12/08 12:32:22;;;;;;;;;;;;;;;8.51;60.90;100678.56;4961507;28;122981;-68
2022/12/08 12:34:51;;;;;;;;;;;;;;;8.49;60.93;100672.47;4948913;28;119555;-68
2022/12/08 12:37:24;;;;;;;;;;;;;;;8.49;60.96;100675.13;4951291;28;119554;-69
2022/12/08 12:39:51;;;;;;;;;;;;;;;8.50;61.02;100671.56;4949557;28;124689;-68
2022/12/08 12:42:36;;;;;;;;;;;;;;;8.49;61.19;100675.13;4968740;28;124755;-68
2022/12/08 12:45:21;;;;;;;;;;;;;;;8.48;61.15;100673.41;4968408;28;120658;-68
2022/12/08 12:47:50;;;;;;;;;;;;;;;8.49;61.07;100669.84;4958175;28;118972;-68
2022/12/08 12:50:31;;;;;;;;;;;;;;;8.48;61.05;100662.84;4962113;28;123883;-68
2022/12/08 12:52:58;;;;;;;;;;;;;;;8.49;61.34;100659.28;4963369;28;124292;-68
2022/12/08 12:55:27;;;;;;;;;;;;;;;8.53;61.20;100655.59;4955113;28;121732;-68